CJU5 weather

Minnedosa Airport
Minnedosa, Manitoba, Canada

Public forecast

Using degrees Celsius for public forecast. Weather courtesy of forecast.io.

METAR (pilot weather report)

Closest report is Brandon Municipal Airport, 22.9 nm (42.4 km) SSW. Retrieved 2019/05/24 07:00 UTC (2 minutes ago):

CYBR 240700Z 05005KT 15SM FEW250 05/M02 A3000 RMK CI2 SLP171

TAF (pilot weather forecast)

Closest forecast is Brandon Municipal Airport, 22.9 nm (42.4 km) SSW. Retrieved 2019/05/24 06:42 UTC (20 minutes ago):

TAF CYBR 240538Z 2406/2418 08005KT P6SM BKN250 BECMG 2413/2415 09012KT BKN015 OVC150 FM241600 12015G25KT P6SM -RA SCT012 OVC025 TEMPO 2416/2418 4SM -RA BR OVC012 RMK NXT FCST BY 241200Z